createdAt,value
2022-08-17T00:02:26.439Z,45.28
2022-08-17T00:04:55.417Z,40.83
2022-08-17T00:07:23.049Z,33.22
2022-08-17T00:09:50.467Z,29.67
2022-08-17T00:12:43.317Z,41.28
2022-08-17T00:15:08.203Z,33.33
2022-08-17T00:17:38.116Z,29.47
2022-08-17T00:20:06.106Z,23.42
2022-08-17T00:22:36.421Z,24.65
2022-08-17T00:25:12.210Z,15.93
2022-08-17T00:27:39.782Z,18.88
2022-08-17T00:30:10.347Z,23.07
2022-08-17T00:33:12.527Z,17.48
2022-08-17T00:35:31.917Z,20.25
2022-08-17T00:37:58.821Z,23.45
2022-08-17T00:40:26.739Z,26.00
2022-08-17T00:43:33.239Z,24.80
2022-08-17T00:46:02.172Z,30.00
2022-08-17T00:48:30.931Z,28.35
2022-08-17T00:51:22.809Z,28.50
2022-08-17T00:54:18.202Z,24.80
2022-08-17T00:56:51.209Z,21.33
2022-08-17T00:59:21.991Z,25.85
2022-08-17T01:01:50.948Z,22.30
2022-08-17T01:04:21.249Z,32.05
2022-08-17T01:06:49.683Z,23.27
2022-08-17T01:09:18.002Z,22.77
2022-08-17T01:11:48.371Z,20.52
2022-08-17T01:14:15.431Z,23.48
2022-08-17T01:16:42.497Z,30.63
2022-08-17T01:19:18.312Z,27.83
2022-08-17T01:22:07.756Z,30.45
2022-08-17T01:24:37.161Z,22.30
2022-08-17T01:27:10.259Z,23.75
2022-08-17T01:29:41.107Z,29.70
2022-08-17T01:32:08.606Z,22.30
2022-08-17T01:34:42.706Z,26.73
2022-08-17T01:37:13.284Z,22.45
2022-08-17T01:39:48.808Z,27.77
2022-08-17T01:42:26.791Z,27.30
2022-08-17T01:44:59.024Z,25.98
2022-08-17T01:47:26.212Z,23.00
2022-08-17T01:49:53.317Z,28.40
2022-08-17T01:52:22.063Z,25.27
2022-08-17T01:54:51.521Z,23.95
2022-08-17T01:57:18.912Z,25.40
2022-08-17T01:59:46.067Z,21.53
2022-08-17T02:02:13.019Z,26.60
2022-08-17T02:04:59.230Z,22.40
2022-08-17T02:07:27.024Z,21.58
2022-08-17T02:09:54.550Z,19.75
2022-08-17T02:12:37.839Z,21.20
2022-08-17T02:15:08.487Z,22.75
2022-08-17T02:17:35.897Z,28.33
2022-08-17T02:20:03.849Z,29.58
2022-08-17T02:22:31.154Z,32.03
2022-08-17T02:25:01.890Z,33.37
2022-08-17T02:27:31.254Z,53.17
2022-08-17T02:29:58.345Z,43.75
2022-08-17T02:32:28.536Z,36.10
2022-08-17T02:35:00.335Z,29.85
2022-08-17T02:37:29.882Z,26.50
2022-08-17T02:39:58.555Z,26.02
2022-08-17T02:42:31.523Z,25.00
2022-08-17T02:44:59.214Z,24.17
2022-08-17T02:47:28.771Z,24.33
2022-08-17T02:54:40.614Z,23.13
2022-08-17T02:57:10.301Z,23.20
2022-08-17T02:59:46.738Z,18.83
2022-08-17T03:02:16.179Z,18.65
2022-08-17T03:04:43.263Z,19.38
2022-08-17T03:07:10.252Z,19.95
2022-08-17T03:09:37.940Z,22.40
2022-08-17T03:12:13.061Z,19.55
2022-08-17T03:14:41.967Z,21.33
2022-08-17T03:17:16.920Z,25.00
2022-08-17T03:19:45.027Z,27.27
2022-08-17T03:22:36.247Z,23.92
2022-08-17T03:24:59.059Z,24.98
2022-08-17T03:27:26.513Z,24.25
2022-08-17T03:29:53.628Z,22.00
2022-08-17T03:32:20.930Z,20.38
2022-08-17T03:34:48.726Z,27.13
2022-08-17T03:37:15.928Z,24.35
2022-08-17T03:39:43.034Z,36.42
2022-08-17T03:42:31.359Z,36.00
2022-08-17T03:45:01.026Z,30.42
2022-08-17T03:47:47.196Z,28.48
2022-08-17T03:50:34.687Z,40.08
2022-08-17T03:53:25.277Z,34.53
2022-08-17T03:56:10.852Z,42.07
2022-08-17T03:58:38.049Z,35.35
2022-08-17T04:01:07.036Z,34.88
2022-08-17T04:03:34.207Z,36.30
2022-08-17T04:06:02.456Z,34.67
2022-08-17T04:08:30.255Z,32.13
2022-08-17T04:10:58.354Z,37.25
2022-08-17T04:13:25.622Z,39.95
2022-08-17T04:15:53.831Z,33.38
2022-08-17T04:18:20.913Z,39.75
2022-08-17T04:20:47.995Z,40.27
2022-08-17T04:23:18.563Z,49.15
2022-08-17T04:25:49.238Z,38.72
2022-08-17T04:28:20.236Z,36.20
2022-08-17T04:30:48.201Z,41.80
2022-08-17T04:33:21.726Z,41.80
2022-08-17T04:35:51.530Z,43.13
2022-08-17T04:38:24.590Z,46.03
2022-08-17T04:41:10.363Z,44.20
2022-08-17T04:43:39.329Z,41.83
2022-08-17T04:46:10.086Z,44.33
2022-08-17T04:48:40.494Z,49.28
2022-08-17T04:51:11.444Z,44.72
2022-08-17T04:53:44.499Z,45.58
2022-08-17T04:56:16.001Z,49.75
2022-08-17T04:58:45.776Z,51.37
2022-08-17T05:01:12.938Z,43.88
2022-08-17T05:03:40.104Z,46.75
2022-08-17T05:06:07.671Z,49.05
2022-08-17T05:08:35.146Z,45.67
2022-08-17T05:11:02.284Z,42.70
2022-08-17T05:13:32.780Z,49.00
2022-08-17T05:16:02.206Z,44.95
2022-08-17T05:18:30.493Z,47.35
2022-08-17T05:20:57.736Z,50.67
2022-08-17T05:23:27.706Z,45.67
2022-08-17T05:26:10.431Z,48.50
2022-08-17T05:28:48.170Z,44.17
2022-08-17T05:31:15.688Z,43.75
2022-08-17T05:33:46.168Z,45.25
2022-08-17T05:36:41.862Z,46.17
2022-08-17T05:39:02.780Z,51.20
2022-08-17T05:41:29.724Z,41.22
2022-08-17T05:43:56.815Z,48.58
2022-08-17T05:46:27.621Z,44.78
2022-08-17T05:49:10.038Z,44.97
2022-08-17T05:51:40.081Z,47.03
2022-08-17T05:54:49.743Z,45.05
2022-08-17T05:57:43.618Z,45.05
2022-08-17T06:00:30.807Z,50.55
2022-08-17T06:03:10.572Z,46.00
2022-08-17T06:06:05.175Z,46.63
2022-08-17T06:08:51.638Z,47.35
2022-08-17T06:11:28.152Z,42.10
2022-08-17T06:14:10.257Z,36.55
2022-08-17T06:16:45.736Z,35.67
2022-08-17T06:19:38.570Z,40.25
2022-08-17T06:22:08.769Z,38.78
2022-08-17T06:24:43.163Z,32.83
2022-08-17T06:27:36.240Z,29.45
2022-08-17T06:30:09.544Z,30.30
2022-08-17T06:32:44.797Z,33.65
2022-08-17T06:35:15.639Z,32.83
2022-08-17T06:38:37.178Z,23.88
2022-08-17T06:41:38.967Z,28.63
2022-08-17T06:44:43.211Z,27.77
2022-08-17T06:47:32.862Z,32.05
2022-08-17T06:50:31.935Z,26.58
2022-08-17T06:53:38.993Z,29.45
2022-08-17T06:56:11.732Z,26.13
2022-08-17T06:58:43.180Z,23.13
2022-08-17T07:01:18.387Z,26.70
2022-08-17T07:03:49.902Z,29.77
2022-08-17T07:06:23.643Z,20.88
2022-08-17T07:09:06.480Z,23.00
2022-08-17T07:11:36.500Z,20.10
2022-08-17T07:14:15.190Z,24.48
2022-08-17T07:16:50.797Z,22.02
2022-08-17T07:19:22.708Z,22.85
2022-08-17T07:26:13.352Z,21.47
2022-08-17T07:28:40.484Z,24.20
2022-08-17T07:31:14.234Z,18.33
2022-08-17T07:33:59.893Z,18.17
2022-08-17T07:36:30.030Z,20.20
2022-08-17T07:38:58.397Z,22.83
2022-08-17T07:41:25.489Z,21.67
2022-08-17T07:44:15.482Z,17.50
2022-08-17T07:47:10.844Z,16.08
2022-08-17T07:49:46.352Z,20.95
2022-08-17T07:52:50.821Z,17.57
2022-08-17T07:55:30.651Z,18.35
2022-08-17T07:57:59.484Z,19.55
2022-08-17T08:00:32.058Z,24.98
2022-08-17T08:03:26.116Z,24.55
2022-08-17T08:06:01.256Z,22.80
2022-08-17T08:08:52.262Z,22.33
2022-08-17T08:11:33.256Z,23.73
2022-08-17T08:14:28.708Z,23.20
2022-08-17T08:17:07.246Z,20.25
2022-08-17T08:19:36.575Z,23.13
2022-08-17T08:22:11.390Z,18.50
2022-08-17T08:25:02.682Z,16.50
2022-08-17T08:27:52.616Z,15.63
2022-08-17T08:30:21.895Z,14.32
2022-08-17T08:33:04.655Z,12.30
2022-08-17T08:35:58.939Z,15.82
2022-08-17T08:38:34.569Z,18.33
2022-08-17T08:41:12.329Z,16.58
2022-08-17T08:44:10.236Z,16.90
2022-08-17T08:47:18.308Z,14.63
2022-08-17T08:50:37.470Z,15.60
2022-08-17T08:53:21.984Z,11.68
2022-08-17T08:56:03.567Z,13.60
2022-08-17T08:58:43.681Z,22.02
2022-08-17T09:01:27.949Z,16.60
2022-08-17T09:04:25.416Z,16.17
2022-08-17T09:06:58.530Z,12.68
2022-08-17T09:09:43.636Z,17.05
2022-08-17T09:12:48.776Z,10.35
2022-08-17T09:15:20.957Z,9.57
2022-08-17T09:19:01.230Z,11.27
2022-08-17T09:21:22.597Z,13.07
2022-08-17T09:24:00.062Z,14.85
2022-08-17T09:26:39.658Z,15.35
2022-08-17T09:29:11.574Z,12.30
2022-08-17T09:32:01.750Z,13.52
2022-08-17T09:34:48.374Z,8.85
2022-08-17T09:37:43.273Z,15.38
2022-08-17T09:40:23.687Z,14.60
2022-08-17T09:43:01.043Z,14.03
2022-08-17T09:45:51.257Z,20.98
2022-08-17T09:48:30.642Z,13.73
2022-08-17T09:51:24.557Z,14.93
2022-08-17T09:53:51.837Z,10.65
2022-08-17T09:56:27.441Z,8.47
2022-08-17T09:59:00.571Z,9.90
2022-08-17T10:01:36.874Z,9.95
2022-08-17T10:04:12.993Z,10.90
2022-08-17T10:06:52.305Z,11.02
2022-08-17T10:09:39.526Z,9.90
2022-08-17T10:12:20.467Z,13.55
2022-08-17T10:15:07.709Z,11.48
2022-08-17T10:18:01.285Z,15.90
2022-08-17T10:21:19.518Z,11.55
2022-08-17T10:24:11.302Z,10.03
2022-08-17T10:26:55.844Z,15.70
2022-08-17T10:29:48.478Z,13.30
2022-08-17T10:32:42.282Z,16.10
2022-08-17T10:35:18.767Z,12.02
2022-08-17T10:38:26.866Z,13.13
2022-08-17T10:41:06.005Z,10.50
2022-08-17T10:44:39.054Z,9.02
2022-08-17T10:47:03.691Z,11.48
2022-08-17T10:49:34.103Z,14.85
2022-08-17T10:52:20.731Z,12.53
2022-08-17T10:55:09.115Z,11.35
2022-08-17T10:57:41.106Z,12.57
2022-08-17T11:00:14.829Z,14.35
2022-08-17T11:02:50.187Z,12.90
2022-08-17T11:05:43.847Z,12.73
2022-08-17T11:08:36.402Z,11.55
2022-08-17T11:11:35.976Z,10.88
2022-08-17T11:14:24.000Z,13.35
2022-08-17T11:17:09.373Z,16.85
2022-08-17T11:20:04.896Z,18.90
2022-08-17T11:22:55.767Z,10.43
2022-08-17T11:25:38.595Z,13.82
2022-08-17T11:28:24.683Z,10.55
2022-08-17T11:30:57.733Z,17.30
2022-08-17T11:33:34.230Z,12.70
2022-08-17T11:36:42.415Z,24.55
2022-08-17T11:39:23.150Z,16.02
2022-08-17T11:41:55.282Z,13.50
2022-08-17T11:44:31.333Z,14.90
2022-08-17T11:47:27.508Z,19.57
2022-08-17T11:50:27.725Z,11.85
2022-08-17T11:52:55.659Z,14.07
2022-08-17T11:55:39.556Z,13.98
2022-08-17T11:58:29.559Z,15.50
2022-08-17T12:01:23.047Z,12.20
2022-08-17T12:04:00.844Z,22.42
2022-08-17T12:06:42.640Z,17.92
2022-08-17T12:09:17.264Z,16.33
2022-08-17T12:12:10.976Z,14.90
2022-08-17T12:15:08.072Z,13.53
2022-08-17T12:17:40.140Z,13.63
2022-08-17T12:20:22.207Z,12.52
2022-08-17T12:23:12.223Z,14.50
2022-08-17T12:25:47.673Z,20.33
2022-08-17T12:28:26.796Z,12.37
2022-08-17T12:30:54.640Z,20.70
2022-08-17T12:33:25.778Z,19.23
2022-08-17T12:36:04.905Z,15.43
2022-08-17T12:38:34.814Z,15.25
2022-08-17T12:41:25.041Z,13.30
2022-08-17T12:44:09.620Z,12.98
2022-08-17T12:46:48.195Z,17.48
2022-08-17T12:49:29.965Z,18.60
2022-08-17T12:52:23.756Z,16.90
2022-08-17T12:55:01.975Z,15.50
2022-08-17T12:57:43.085Z,14.20
2022-08-17T13:00:16.456Z,16.13
2022-08-17T13:02:54.560Z,14.98
2022-08-17T13:05:28.649Z,16.85
2022-08-17T13:07:58.163Z,14.73
2022-08-17T13:10:37.844Z,18.20
2022-08-17T13:13:19.552Z,13.23
2022-08-17T13:15:58.810Z,17.92
2022-08-17T13:18:34.244Z,15.50
2022-08-17T13:21:01.414Z,13.37
2022-08-17T13:23:32.369Z,15.13
2022-08-17T13:26:06.899Z,14.45
2022-08-17T13:28:36.799Z,17.30
2022-08-17T13:31:24.174Z,22.00
2022-08-17T13:33:51.219Z,26.27
2022-08-17T13:36:30.259Z,13.85
2022-08-17T13:39:27.424Z,11.02
2022-08-17T13:41:56.171Z,13.63
2022-08-17T13:44:35.005Z,12.85
2022-08-17T13:47:04.753Z,12.57
2022-08-17T13:49:48.490Z,15.43
2022-08-17T13:52:40.422Z,13.50
2022-08-17T13:55:18.570Z,14.43
2022-08-17T13:57:57.786Z,17.45
2022-08-17T14:00:36.525Z,12.67
2022-08-17T14:03:05.748Z,14.55
2022-08-17T14:05:33.934Z,19.08
2022-08-17T14:08:06.616Z,15.98
2022-08-17T14:10:36.657Z,16.73
2022-08-17T14:13:04.587Z,11.60
2022-08-17T14:15:54.712Z,11.90
2022-08-17T14:18:34.291Z,14.32
2022-08-17T14:21:08.808Z,15.07
2022-08-17T14:23:37.305Z,17.15
2022-08-17T14:26:04.991Z,15.23
2022-08-17T14:28:32.635Z,24.05
2022-08-17T14:31:00.881Z,20.27
2022-08-17T14:34:04.565Z,18.52
2022-08-17T14:36:32.475Z,13.68
2022-08-17T14:38:59.456Z,11.17
2022-08-17T14:41:26.568Z,14.35
2022-08-17T14:43:54.022Z,20.33
2022-08-17T14:46:21.049Z,14.20
2022-08-17T14:48:51.733Z,11.75
2022-08-17T14:51:23.306Z,11.57
2022-08-17T14:53:53.126Z,13.10
2022-08-17T14:56:22.432Z,8.73
2022-08-17T14:58:49.459Z,13.25
2022-08-17T15:01:20.908Z,11.95
2022-08-17T15:03:48.609Z,7.60
2022-08-17T15:06:16.471Z,13.25
2022-08-17T15:08:43.966Z,14.65
2022-08-17T15:11:14.793Z,11.68
2022-08-17T15:13:53.030Z,10.00
2022-08-17T15:16:20.623Z,11.97
2022-08-17T15:18:48.525Z,15.23
2022-08-17T15:21:16.077Z,9.90
2022-08-17T15:23:43.026Z,11.48
2022-08-17T15:26:11.242Z,13.05
2022-08-17T15:28:38.406Z,11.37
2022-08-17T15:31:06.835Z,10.38
2022-08-17T15:33:34.025Z,9.85
2022-08-17T15:36:06.569Z,7.50
2022-08-17T15:38:36.897Z,12.38
2022-08-17T15:41:04.086Z,12.43
2022-08-17T15:43:32.682Z,12.35
2022-08-17T15:46:01.822Z,13.75
2022-08-17T15:48:43.498Z,11.82
2022-08-17T15:51:24.181Z,11.77
2022-08-17T15:54:00.187Z,12.80
2022-08-17T15:56:32.235Z,12.43
2022-08-17T15:58:59.840Z,15.82
2022-08-17T16:02:27.724Z,12.57
2022-08-17T16:04:30.381Z,10.43
2022-08-17T16:06:58.844Z,20.67
2022-08-17T16:09:26.023Z,14.15
2022-08-17T16:11:55.536Z,16.88
2022-08-17T16:14:28.877Z,12.57
2022-08-17T16:17:00.903Z,16.38
2022-08-17T16:19:28.025Z,11.47
2022-08-17T16:21:55.101Z,13.38
2022-08-17T16:24:22.167Z,11.77
2022-08-17T16:26:49.171Z,10.68
2022-08-17T16:29:16.275Z,13.15
2022-08-17T16:31:43.624Z,22.07
2022-08-17T16:34:17.285Z,12.05
2022-08-17T16:36:54.927Z,10.07
2022-08-17T16:39:27.558Z,11.73
2022-08-17T16:41:56.148Z,13.90
2022-08-17T16:44:27.549Z,10.50
2022-08-17T16:46:54.796Z,18.13
2022-08-17T16:49:36.238Z,13.30
2022-08-17T16:52:10.418Z,14.57
2022-08-17T16:54:41.970Z,10.75
2022-08-17T16:57:10.501Z,13.90
2022-08-17T16:59:41.867Z,10.88
2022-08-17T17:02:13.870Z,18.58
2022-08-17T17:04:53.770Z,14.15
2022-08-17T17:07:33.985Z,17.00
2022-08-17T17:10:09.107Z,11.13
2022-08-17T17:13:01.183Z,11.70
2022-08-17T17:15:31.760Z,17.35
2022-08-17T17:18:07.097Z,17.25
2022-08-17T17:20:47.724Z,13.68
2022-08-17T17:23:37.840Z,23.57
2022-08-17T17:26:40.748Z,15.32
2022-08-17T17:29:58.495Z,16.00
2022-08-17T17:32:38.090Z,12.07
2022-08-17T17:35:34.186Z,11.95
2022-08-17T17:38:12.299Z,19.13
2022-08-17T17:40:44.898Z,19.90
2022-08-17T17:43:37.748Z,21.23
2022-08-17T17:46:26.722Z,16.50
2022-08-17T17:48:55.437Z,22.00
2022-08-17T17:52:09.605Z,22.37
2022-08-17T17:54:53.115Z,20.10
2022-08-17T17:57:55.886Z,21.70
2022-08-17T18:00:37.375Z,19.00
2022-08-17T18:03:31.100Z,30.75
2022-08-17T18:06:32.161Z,29.83
2022-08-17T18:09:33.849Z,25.55
2022-08-17T18:12:19.950Z,33.55
2022-08-17T18:15:01.533Z,38.13
2022-08-17T18:17:45.554Z,29.50
2022-08-17T18:20:36.472Z,34.33
2022-08-17T18:23:11.228Z,23.23
2022-08-17T18:25:48.075Z,41.65
2022-08-17T18:28:30.819Z,41.13
2022-08-17T18:31:17.526Z,26.63
2022-08-17T18:34:45.753Z,24.00
2022-08-17T18:37:11.149Z,34.75
2022-08-17T18:39:45.378Z,36.10
2022-08-17T18:42:29.069Z,32.45
2022-08-17T18:44:56.389Z,46.40
2022-08-17T18:47:29.476Z,37.37
2022-08-17T18:50:24.523Z,26.05
2022-08-17T18:52:51.610Z,19.20
2022-08-17T18:55:23.184Z,29.00
2022-08-17T18:57:53.138Z,39.53
2022-08-17T19:00:36.307Z,35.37
2022-08-17T19:03:22.108Z,33.97
2022-08-17T19:05:55.151Z,27.42
2022-08-17T19:08:28.409Z,31.25
2022-08-17T19:10:59.898Z,40.72
2022-08-17T19:13:47.586Z,27.53
2022-08-17T19:16:21.129Z,32.00
2022-08-17T19:19:00.278Z,29.83
2022-08-17T19:21:32.487Z,34.88
2022-08-17T19:24:09.891Z,31.98
2022-08-17T19:26:54.501Z,26.80
2022-08-17T19:29:29.503Z,32.00
2022-08-17T19:31:58.726Z,24.50
2022-08-17T19:34:33.906Z,26.88
2022-08-17T19:37:10.275Z,19.80
2022-08-17T19:39:55.668Z,19.73
2022-08-17T19:42:55.140Z,25.98
2022-08-17T19:45:45.617Z,20.55
2022-08-17T19:48:21.303Z,19.13
2022-08-17T19:51:31.481Z,20.88
2022-08-17T19:54:35.154Z,16.77
2022-08-17T19:57:23.290Z,22.27
2022-08-17T20:00:13.801Z,20.80
2022-08-17T20:02:50.362Z,23.85
2022-08-17T20:05:26.298Z,21.23
2022-08-17T20:08:01.442Z,21.57
2022-08-17T20:10:54.866Z,26.67
2022-08-17T20:13:33.145Z,18.10
2022-08-17T20:16:04.673Z,16.38
2022-08-17T20:18:37.726Z,23.05
2022-08-17T20:21:19.857Z,16.93
2022-08-17T20:23:50.777Z,17.38
2022-08-17T20:26:39.419Z,18.55
2022-08-17T20:29:09.085Z,16.33
2022-08-17T20:31:59.382Z,12.65
2022-08-17T20:34:33.458Z,20.00
2022-08-17T20:37:27.957Z,15.77
2022-08-17T20:39:58.007Z,16.60
2022-08-17T20:42:26.030Z,20.67
2022-08-17T20:45:01.833Z,19.10
2022-08-17T20:48:00.769Z,18.90
2022-08-17T20:50:38.786Z,15.13
2022-08-17T20:53:10.184Z,22.08
2022-08-17T20:55:51.398Z,17.27
2022-08-17T20:58:23.198Z,16.67
2022-08-17T21:00:56.211Z,20.37
2022-08-17T21:03:23.808Z,18.60
2022-08-17T21:06:00.790Z,20.73
2022-08-17T21:08:54.468Z,18.17
2022-08-17T21:11:56.748Z,15.65
2022-08-17T21:14:57.479Z,13.97
2022-08-17T21:17:39.398Z,20.20
2022-08-17T21:20:34.790Z,20.45
2022-08-17T21:23:35.094Z,19.52
2022-08-17T21:26:30.385Z,17.55
2022-08-17T21:29:31.136Z,15.03
2022-08-17T21:32:00.969Z,18.92
2022-08-17T21:34:42.609Z,17.65
2022-08-17T21:37:19.082Z,19.98
2022-08-17T21:39:51.938Z,17.95
2022-08-17T21:42:34.665Z,15.37
2022-08-17T21:45:11.138Z,19.55
2022-08-17T21:47:43.557Z,16.67
2022-08-17T21:50:25.766Z,19.95
2022-08-17T21:52:54.202Z,21.05
2022-08-17T21:55:29.838Z,17.03
2022-08-17T21:58:13.727Z,14.43
2022-08-17T22:00:46.126Z,20.83
2022-08-17T22:03:26.184Z,21.15
2022-08-17T22:05:53.162Z,17.30
2022-08-17T22:08:23.876Z,16.20
2022-08-17T22:11:03.213Z,15.35
2022-08-17T22:13:30.316Z,13.75
2022-08-17T22:16:15.654Z,16.38
2022-08-17T22:18:58.209Z,19.30
2022-08-17T22:21:25.596Z,15.13
2022-08-17T22:24:04.439Z,15.20
2022-08-17T22:27:11.764Z,16.73
2022-08-17T22:29:58.455Z,16.95
2022-08-17T22:32:55.573Z,15.82
2022-08-17T22:35:29.244Z,16.97
2022-08-17T22:37:57.275Z,20.77
2022-08-17T22:40:29.143Z,23.25
2022-08-17T22:42:57.811Z,15.80
2022-08-17T22:45:31.260Z,27.90
2022-08-17T22:48:01.587Z,23.43
2022-08-17T22:50:33.110Z,25.35
2022-08-17T22:53:33.670Z,32.15
2022-08-17T22:56:19.105Z,32.97
2022-08-17T22:59:12.463Z,28.42
2022-08-17T23:01:41.382Z,23.65
2022-08-17T23:04:12.195Z,37.05
2022-08-17T23:06:42.637Z,38.47
2022-08-17T23:09:09.711Z,33.55
2022-08-17T23:11:49.089Z,34.58
2022-08-17T23:14:20.033Z,34.75
2022-08-17T23:16:51.172Z,30.75
2022-08-17T23:19:23.899Z,32.65
2022-08-17T23:21:54.446Z,31.13
2022-08-17T23:24:24.892Z,39.40
2022-08-17T23:26:57.483Z,44.73
2022-08-17T23:29:26.791Z,33.65
2022-08-17T23:31:53.863Z,31.25
2022-08-17T23:34:24.322Z,32.78
2022-08-17T23:36:52.347Z,31.85
2022-08-17T23:39:27.323Z,31.60
2022-08-17T23:42:00.545Z,44.65
2022-08-17T23:44:28.977Z,37.05
2022-08-17T23:46:58.393Z,43.80
2022-08-17T23:49:25.567Z,38.80
2022-08-17T23:51:54.801Z,31.10
2022-08-17T23:54:21.682Z,32.40
2022-08-17T23:56:48.718Z,30.95
2022-08-17T23:59:17.934Z,39.45
